Time;durP1;ratioP1;P1;durP2;ratioP2;P2;SDS_P1;SDS_P2;PMS_P1;PMS_P2;Temp;Humidity;BMP_temperature;BMP_pressure;BME280_temperature;BME280_humidity;BME280_pressure;Samples;Min_cycle;Max_cycle;Signal;HPM_P1;HPM_P2
2023/01/18 00:01:10;;;;;;;;;;;27.90;63.50;;;;;;6280900;22;20245;-71
2023/01/18 00:03:37;;;;;;;;;;;27.90;62.50;;;;;;6307157;22;19907;-71
2023/01/18 00:06:05;;;;;;;;;;;28.00;62.10;;;;;;6307933;22;19911;-71
2023/01/18 00:08:32;;;;;;;;;;;28.10;63.70;;;;;;6307555;22;19907;-71
2023/01/18 00:11:03;;;;;;;;;;;28.10;61.80;;;;;;6280740;22;19957;-71
2023/01/18 00:13:29;;;;;;;;;;;28.10;62.00;;;;;;6280072;22;19917;-71
2023/01/18 00:16:06;;;;;;;;;;;28.10;60.90;;;;;;6280537;22;19902;-71
2023/01/18 00:18:34;;;;;;;;;;;28.10;62.00;;;;;;6307407;22;19906;-71
2023/01/18 00:21:01;;;;;;;;;;;28.20;62.90;;;;;;6307845;22;19910;-71
2023/01/18 00:23:28;;;;;;;;;;;28.20;61.80;;;;;;6307371;22;19903;-71
2023/01/18 00:26:05;;;;;;;;;;;28.30;61.40;;;;;;6307770;22;20322;-71
2023/01/18 00:28:31;;;;;;;;;;;28.20;61.00;;;;;;6280660;22;19911;-71
2023/01/18 00:30:58;;;;;;;;;;;28.20;62.00;;;;;;6280627;22;19903;-71
2023/01/18 00:33:25;;;;;;;;;;;28.20;62.90;;;;;;6280291;22;20310;-72
2023/01/18 00:35:58;;;;;;;;;;;28.20;61.40;;;;;;6281030;22;20379;-71
2023/01/18 00:38:25;;;;;;;;;;;28.20;62.10;;;;;;6280736;22;19993;-71
2023/01/18 00:40:51;;;;;;;;;;;28.20;61.20;;;;;;6307729;22;19941;-72
2023/01/18 00:46:03;;;;;;;;;;;28.30;62.00;;;;;;6307542;22;19918;-71
2023/01/18 00:48:29;;;;;;;;;;;28.20;60.80;;;;;;6307728;22;19903;-71
2023/01/18 00:50:56;;;;;;;;;;;28.10;61.30;;;;;;6307684;22;19910;-71
2023/01/18 00:53:23;;;;;;;;;;;27.90;62.40;;;;;;6279978;22;20234;-72
2023/01/18 00:55:49;;;;;;;;;;;27.80;62.40;;;;;;6280120;22;19993;-71
2023/01/18 00:58:16;;;;;;;;;;;27.70;62.50;;;;;;6306397;22;19910;-71
2023/01/18 01:00:43;;;;;;;;;;;27.70;63.80;;;;;;6307639;22;19914;-72
2023/01/18 01:03:11;;;;;;;;;;;27.60;63.50;;;;;;6307001;22;20234;-72
2023/01/18 01:08:23;;;;;;;;;;;27.50;64.90;;;;;;6307627;22;19964;-71
2023/01/18 01:10:52;;;;;;;;;;;27.50;64.50;;;;;;6279769;22;19907;-72
2023/01/18 01:27:06;;;;;;;;;;;27.50;64.40;;;;;;6307239;22;19918;-71
2023/01/18 01:29:33;;;;;;;;;;;27.50;64.50;;;;;;6307425;22;19966;-71
2023/01/18 01:31:59;;;;;;;;;;;27.50;64.50;;;;;;6305928;22;19933;-71
2023/01/18 01:34:28;;;;;;;;;;;27.60;64.80;;;;;;6307097;22;20036;-72
2023/01/18 01:36:55;;;;;;;;;;;27.70;64.00;;;;;;6307278;22;19913;-72
2023/01/18 01:39:22;;;;;;;;;;;27.60;64.30;;;;;;6307078;22;19907;-71
2023/01/18 01:41:49;;;;;;;;;;;27.60;64.00;;;;;;6306918;22;19932;-71
2023/01/18 01:44:18;;;;;;;;;;;27.70;65.40;;;;;;6253104;22;19919;-72
2023/01/18 01:46:45;;;;;;;;;;;27.80;64.40;;;;;;6279591;22;19931;-71
2023/01/18 01:49:12;;;;;;;;;;;27.70;64.30;;;;;;6306911;22;19910;-71
2023/01/18 01:51:45;;;;;;;;;;;27.80;64.40;;;;;;6306791;22;19911;-72
2023/01/18 01:54:18;;;;;;;;;;;27.80;63.80;;;;;;6279441;22;20081;-71
2023/01/18 01:56:46;;;;;;;;;;;27.70;64.10;;;;;;6306719;22;19985;-71
2023/01/18 01:59:13;;;;;;;;;;;27.70;64.70;;;;;;6277709;22;19978;-71
2023/01/18 02:01:42;;;;;;;;;;;27.80;65.20;;;;;;6279375;22;19910;-71
2023/01/18 02:04:09;;;;;;;;;;;27.80;63.90;;;;;;6279240;22;19918;-71
2023/01/18 02:06:36;;;;;;;;;;;27.80;65.30;;;;;;6279223;22;20402;-71
2023/01/18 02:09:04;;;;;;;;;;;27.80;63.50;;;;;;6252602;22;20324;-71
2023/01/18 02:11:31;;;;;;;;;;;27.80;63.60;;;;;;6306090;22;19922;-72
2023/01/18 02:14:00;;;;;;;;;;;27.80;63.90;;;;;;6279424;22;19902;-71
2023/01/18 02:16:26;;;;;;;;;;;27.80;64.70;;;;;;6305815;22;20272;-71
2023/01/18 02:19:12;;;;;;;;;;;27.80;63.80;;;;;;6306387;22;19964;-71
2023/01/18 02:22:01;;;;;;;;;;;27.80;63.50;;;;;;6305574;22;19903;-70
2023/01/18 02:24:38;;;;;;;;;;;27.80;65.90;;;;;;6286613;22;19911;-70
2023/01/18 02:27:05;;;;;;;;;;;27.80;63.70;;;;;;6278353;22;19907;-69
2023/01/18 02:29:41;;;;;;;;;;;27.90;63.60;;;;;;6279048;22;20314;-70
2023/01/18 02:32:07;;;;;;;;;;;27.90;63.20;;;;;;6305771;22;19903;-70
2023/01/18 02:34:42;;;;;;;;;;;27.80;63.00;;;;;;6305877;22;19903;-69
2023/01/18 02:37:12;;;;;;;;;;;27.80;63.10;;;;;;6279246;22;19910;-68
2023/01/18 02:40:01;;;;;;;;;;;27.90;63.80;;;;;;6306343;22;19903;-69
2023/01/18 02:48:00;;;;;;;;;;;28.00;63.40;;;;;;6282849;22;19910;-70
2023/01/18 02:50:27;;;;;;;;;;;28.10;62.60;;;;;;6305300;22;20337;-68
2023/01/18 02:52:53;;;;;;;;;;;28.10;63.30;;;;;;6304819;22;19903;-69
2023/01/18 02:55:40;;;;;;;;;;;28.10;63.00;;;;;;6305262;22;19906;-70
2023/01/18 02:58:08;;;;;;;;;;;28.20;63.10;;;;;;6279003;22;20254;-70
2023/01/18 03:00:36;;;;;;;;;;;28.30;63.40;;;;;;6278956;22;19907;-70
2023/01/18 03:03:04;;;;;;;;;;;28.30;62.80;;;;;;6276725;22;19982;-70
2023/01/18 03:05:31;;;;;;;;;;;28.30;61.60;;;;;;6277494;22;19922;-70
2023/01/18 03:08:04;;;;;;;;;;;28.20;62.40;;;;;;6278917;22;19957;-70
2023/01/18 03:10:31;;;;;;;;;;;28.20;63.90;;;;;;6279545;22;19906;-69
2023/01/18 03:13:04;;;;;;;;;;;28.30;63.40;;;;;;6305836;22;20375;-70
2023/01/18 03:15:34;;;;;;;;;;;28.30;62.40;;;;;;6279576;22;20278;-70
2023/01/18 03:18:11;;;;;;;;;;;28.30;62.70;;;;;;6279150;22;19907;-70
2023/01/18 03:20:40;;;;;;;;;;;28.30;62.60;;;;;;6279019;22;19902;-70
2023/01/18 03:26:00;;;;;;;;;;;28.30;63.20;;;;;;6282232;22;20086;-70
2023/01/18 03:33:59;;;;;;;;;;;28.40;64.50;;;;;;6305349;22;19934;-70
2023/01/18 03:36:25;;;;;;;;;;;28.40;63.20;;;;;;6279305;22;19907;-70
2023/01/18 03:38:53;;;;;;;;;;;28.40;63.80;;;;;;6306352;22;19910;-70
2023/01/18 03:41:20;;;;;;;;;;;28.40;62.40;;;;;;6278891;22;19913;-70
2023/01/18 03:43:47;;;;;;;;;;;28.30;62.80;;;;;;6280825;22;20290;-70
2023/01/18 03:46:14;;;;;;;;;;;28.30;62.80;;;;;;6281195;22;19934;-70
2023/01/18 03:48:40;;;;;;;;;;;28.30;63.20;;;;;;6280654;22;19903;-70
2023/01/18 03:51:24;;;;;;;;;;;28.20;63.20;;;;;;6307665;22;20016;-70
2023/01/18 03:54:09;;;;;;;;;;;28.20;63.20;;;;;;6281142;22;19914;-70
2023/01/18 03:56:54;;;;;;;;;;;28.20;62.00;;;;;;6306931;22;19907;-70
2023/01/18 03:59:20;;;;;;;;;;;28.20;62.40;;;;;;6280187;22;19956;-69
2023/01/18 04:01:47;;;;;;;;;;;28.20;63.70;;;;;;6307093;22;19925;-71
2023/01/18 04:04:14;;;;;;;;;;;28.20;64.10;;;;;;6280387;22;19997;-71
2023/01/18 04:06:41;;;;;;;;;;;28.30;63.70;;;;;;6254797;22;19985;-72
2023/01/18 04:09:08;;;;;;;;;;;28.20;64.20;;;;;;6307838;22;19903;-70
2023/01/18 04:11:34;;;;;;;;;;;28.20;61.70;;;;;;6307519;22;19915;-70
2023/01/18 04:14:01;;;;;;;;;;;28.20;62.60;;;;;;6303753;22;19957;-69
2023/01/18 04:16:28;;;;;;;;;;;28.30;62.00;;;;;;6304262;22;19913;-70
2023/01/18 04:18:54;;;;;;;;;;;28.30;63.20;;;;;;6304031;22;20307;-70
2023/01/18 04:21:21;;;;;;;;;;;28.40;60.90;;;;;;6304291;22;19946;-70
2023/01/18 04:23:48;;;;;;;;;;;28.40;61.70;;;;;;6304216;22;20286;-70
2023/01/18 04:26:15;;;;;;;;;;;28.40;62.70;;;;;;6304260;22;20000;-70
2023/01/18 04:28:42;;;;;;;;;;;28.30;62.60;;;;;;6304483;22;19978;-70
2023/01/18 04:31:09;;;;;;;;;;;28.30;62.90;;;;;;6304978;22;19990;-70
2023/01/18 04:33:35;;;;;;;;;;;28.20;62.90;;;;;;6304188;22;19949;-70
2023/01/18 04:36:02;;;;;;;;;;;28.10;63.00;;;;;;6304423;22;20237;-70
2023/01/18 04:38:29;;;;;;;;;;;28.10;63.40;;;;;;6303837;22;19907;-71
2023/01/18 04:40:55;;;;;;;;;;;28.10;62.90;;;;;;6304002;22;19907;-72
2023/01/18 04:43:22;;;;;;;;;;;28.00;62.10;;;;;;6303942;22;19907;-75
2023/01/18 04:45:53;;;;;;;;;;;28.00;63.60;;;;;;6304256;22;19911;-73
2023/01/18 04:48:23;;;;;;;;;;;28.10;64.30;;;;;;6276950;22;20283;-73
2023/01/18 04:50:50;;;;;;;;;;;28.10;63.00;;;;;;6277177;22;19907;-72
2023/01/18 04:53:17;;;;;;;;;;;28.00;63.20;;;;;;6273542;22;19949;-72
2023/01/18 04:55:44;;;;;;;;;;;28.00;62.60;;;;;;6303875;22;19903;-72
2023/01/18 04:58:10;;;;;;;;;;;28.00;63.10;;;;;;6304229;22;19907;-73
2023/01/18 05:00:40;;;;;;;;;;;28.00;63.80;;;;;;6276487;22;19910;-73
2023/01/18 05:03:10;;;;;;;;;;;28.00;64.40;;;;;;6303640;22;19914;-72
2023/01/18 05:05:37;;;;;;;;;;;28.00;64.30;;;;;;6276804;22;19914;-72
2023/01/18 05:08:04;;;;;;;;;;;27.90;64.60;;;;;;6304192;22;20233;-72
2023/01/18 05:10:32;;;;;;;;;;;27.90;65.40;;;;;;6276531;22;19961;-72
2023/01/18 05:12:59;;;;;;;;;;;27.80;66.00;;;;;;6276331;22;20259;-72
2023/01/18 05:15:25;;;;;;;;;;;27.80;65.20;;;;;;6304033;22;19964;-73
2023/01/18 05:17:52;;;;;;;;;;;27.70;65.00;;;;;;6303496;22;19957;-72
2023/01/18 05:20:19;;;;;;;;;;;27.60;65.90;;;;;;6304141;22;19907;-72
2023/01/18 05:22:45;;;;;;;;;;;27.60;66.80;;;;;;6302739;22;19971;-72
2023/01/18 05:25:12;;;;;;;;;;;27.40;66.00;;;;;;6302777;22;19985;-73
2023/01/18 05:27:38;;;;;;;;;;;27.40;66.70;;;;;;6303941;22;19956;-73
2023/01/18 05:30:06;;;;;;;;;;;27.40;66.80;;;;;;6303538;22;20387;-72
2023/01/18 05:32:32;;;;;;;;;;;27.30;67.40;;;;;;6303049;22;20222;-73
2023/01/18 05:34:59;;;;;;;;;;;27.30;67.90;;;;;;6303489;22;19903;-72
2023/01/18 05:37:26;;;;;;;;;;;27.40;67.50;;;;;;6303645;22;19930;-71
2023/01/18 05:39:52;;;;;;;;;;;27.30;68.10;;;;;;6276319;22;19907;-71
2023/01/18 05:42:19;;;;;;;;;;;27.30;68.70;;;;;;6303520;22;19907;-71
2023/01/18 05:44:45;;;;;;;;;;;27.30;68.70;;;;;;6303716;22;19923;-72
2023/01/18 05:47:12;;;;;;;;;;;27.20;68.90;;;;;;6303484;22;19907;-71
2023/01/18 05:49:39;;;;;;;;;;;27.20;68.80;;;;;;6303606;22;20328;-72
2023/01/18 05:52:07;;;;;;;;;;;27.20;69.10;;;;;;6275791;22;19999;-72
2023/01/18 05:54:33;;;;;;;;;;;27.20;69.50;;;;;;6300641;22;19907;-73
2023/01/18 05:57:00;;;;;;;;;;;27.30;69.40;;;;;;6303484;22;19903;-74
2023/01/18 05:59:27;;;;;;;;;;;27.20;69.50;;;;;;6303307;22;19903;-71
2023/01/18 06:01:53;;;;;;;;;;;27.20;70.00;;;;;;6303248;22;20283;-72
2023/01/18 06:04:20;;;;;;;;;;;27.10;69.70;;;;;;6303312;22;19911;-72
2023/01/18 06:06:47;;;;;;;;;;;27.10;70.20;;;;;;6303449;22;19960;-74
2023/01/18 06:09:14;;;;;;;;;;;27.00;70.10;;;;;;6303198;22;19914;-75
2023/01/18 06:11:40;;;;;;;;;;;27.00;70.50;;;;;;6303182;22;19965;-76
2023/01/18 06:14:07;;;;;;;;;;;26.90;70.30;;;;;;6303241;22;19979;-72
2023/01/18 06:16:34;;;;;;;;;;;26.90;71.00;;;;;;6303359;22;20238;-72
2023/01/18 06:19:00;;;;;;;;;;;26.90;71.10;;;;;;6302835;22;19914;-72
2023/01/18 06:21:27;;;;;;;;;;;26.80;71.00;;;;;;6302494;22;20322;-73
2023/01/18 06:23:54;;;;;;;;;;;26.90;71.00;;;;;;6302743;22;19903;-72
2023/01/18 06:26:22;;;;;;;;;;;26.80;71.00;;;;;;6302961;22;19942;-74
2023/01/18 06:28:49;;;;;;;;;;;26.80;71.60;;;;;;6303472;22;19906;-72
2023/01/18 06:31:15;;;;;;;;;;;26.80;71.50;;;;;;6302926;22;19915;-76
2023/01/18 06:33:42;;;;;;;;;;;26.80;71.60;;;;;;6303025;22;20318;-74
2023/01/18 06:36:09;;;;;;;;;;;26.70;71.40;;;;;;6303406;22;19956;-74
2023/01/18 06:38:35;;;;;;;;;;;26.80;71.70;;;;;;6302482;22;20249;-72
2023/01/18 06:41:02;;;;;;;;;;;26.80;71.90;;;;;;6303149;22;20318;-72
2023/01/18 06:43:29;;;;;;;;;;;26.70;71.90;;;;;;6303054;22;20254;-76
2023/01/18 06:45:56;;;;;;;;;;;26.60;72.00;;;;;;6301724;22;19968;-69
2023/01/18 06:48:23;;;;;;;;;;;26.60;72.00;;;;;;6300787;22;19907;-72
2023/01/18 06:50:51;;;;;;;;;;;26.60;72.50;;;;;;6302054;22;19902;-71
2023/01/18 06:53:19;;;;;;;;;;;26.60;72.50;;;;;;6300103;22;19903;-74
2023/01/18 06:55:53;;;;;;;;;;;26.60;72.20;;;;;;6302332;22;19918;-72
2023/01/18 06:58:19;;;;;;;;;;;26.50;72.30;;;;;;6301985;22;19983;-72
2023/01/18 07:00:46;;;;;;;;;;;26.50;72.50;;;;;;6302018;22;19938;-72
2023/01/18 07:03:13;;;;;;;;;;;26.50;72.70;;;;;;6300338;22;19907;-73
2023/01/18 07:05:39;;;;;;;;;;;26.40;72.20;;;;;;6302015;22;19953;-73
2023/01/18 07:08:06;;;;;;;;;;;26.40;72.40;;;;;;6274551;22;19907;-71
2023/01/18 07:10:33;;;;;;;;;;;26.40;72.40;;;;;;6299863;22;19960;-70
2023/01/18 07:12:59;;;;;;;;;;;26.40;72.40;;;;;;6299490;22;19922;-71
2023/01/18 07:15:26;;;;;;;;;;;26.30;72.60;;;;;;6300770;22;19914;-71
2023/01/18 07:17:53;;;;;;;;;;;26.40;72.80;;;;;;6303401;22;19911;-71
2023/01/18 07:20:19;;;;;;;;;;;26.30;72.60;;;;;;6304375;22;19941;-71
2023/01/18 07:22:50;;;;;;;;;;;26.40;72.80;;;;;;6303937;22;19953;-71
2023/01/18 07:25:17;;;;;;;;;;;26.30;72.90;;;;;;6303285;22;20437;-71
2023/01/18 07:27:45;;;;;;;;;;;26.30;73.10;;;;;;6304807;22;19916;-71
2023/01/18 07:30:11;;;;;;;;;;;26.30;72.70;;;;;;6304584;22;19911;-71
2023/01/18 07:32:38;;;;;;;;;;;26.30;73.20;;;;;;6304661;22;19907;-71
2023/01/18 07:35:06;;;;;;;;;;;26.30;73.10;;;;;;6277356;22;19915;-71
2023/01/18 07:37:33;;;;;;;;;;;26.20;73.50;;;;;;6304005;22;19918;-71
2023/01/18 09:36:00;;;;;;;;;;;25.70;75.00;;;;;;6275239;22;19929;-73
2023/01/18 09:38:29;;;;;;;;;;;25.70;74.60;;;;;;6248503;22;19939;-73
2023/01/18 09:40:55;;;;;;;;;;;25.70;74.60;;;;;;6245039;22;19989;-72
2023/01/18 09:43:42;;;;;;;;;;;25.80;74.80;;;;;;6247424;22;19907;-73
2023/01/18 09:46:19;;;;;;;;;;;25.70;77.00;;;;;;6248261;22;19915;-72
2023/01/18 09:48:51;;;;;;;;;;;25.40;80.00;;;;;;6247465;22;20334;-72
2023/01/18 09:51:20;;;;;;;;;;;25.30;81.90;;;;;;6247648;22;20007;-73
2023/01/18 09:53:50;;;;;;;;;;;25.10;82.40;;;;;;6248498;22;19903;-72
2023/01/18 09:56:21;;;;;;;;;;;25.00;82.30;;;;;;6273779;22;19907;-72
2023/01/18 09:59:08;;;;;;;;;;;24.90;83.30;;;;;;6247253;22;19907;-72
2023/01/18 10:01:35;;;;;;;;;;;24.70;83.90;;;;;;6184816;22;20357;-72
2023/01/18 10:04:03;;;;;;;;;;;24.50;85.20;;;;;;6248014;22;19930;-73
2023/01/18 10:06:50;;;;;;;;;;;24.40;86.80;;;;;;6248494;22;19923;-73
2023/01/18 10:09:24;;;;;;;;;;;24.20;88.60;;;;;;6272435;22;19907;-70
2023/01/18 10:11:53;;;;;;;;;;;24.10;90.30;;;;;;6246665;22;19914;-70
2023/01/18 10:14:19;;;;;;;;;;;23.70;91.60;;;;;;6274735;22;19910;-72
2023/01/18 10:16:47;;;;;;;;;;;23.60;92.70;;;;;;6275401;22;19911;-72
2023/01/18 10:19:26;;;;;;;;;;;23.40;93.10;;;;;;6247090;22;20385;-70
2023/01/18 10:21:59;;;;;;;;;;;23.30;93.90;;;;;;6247642;22;19957;-71
2023/01/18 10:24:35;;;;;;;;;;;23.00;94.20;;;;;;6274346;22;19915;-70
2023/01/18 10:27:09;;;;;;;;;;;23.20;94.90;;;;;;6274613;22;20268;-70
2023/01/18 10:29:49;;;;;;;;;;;23.20;95.10;;;;;;6247390;22;20597;-71
2023/01/18 10:32:17;;;;;;;;;;;23.20;95.50;;;;;;6272749;22;19914;-70
2023/01/18 10:37:29;;;;;;;;;;;22.90;95.60;;;;;;6306067;22;20033;-71
2023/01/18 10:39:57;;;;;;;;;;;22.90;95.70;;;;;;6304963;22;20357;-70
2023/01/18 10:42:43;;;;;;;;;;;23.00;96.00;;;;;;6278260;22;19903;-70
2023/01/18 10:45:20;;;;;;;;;;;22.90;96.20;;;;;;6304647;22;19922;-70
2023/01/18 10:47:47;;;;;;;;;;;22.90;96.30;;;;;;6278270;22;20229;-70
2023/01/18 10:50:15;;;;;;;;;;;22.80;96.20;;;;;;6277533;22;19903;-71
2023/01/18 10:52:42;;;;;;;;;;;22.80;96.20;;;;;;6307120;22;19906;-71
2023/01/18 10:55:13;;;;;;;;;;;22.80;96.50;;;;;;6306546;22;19978;-72
2023/01/18 10:57:43;;;;;;;;;;;22.80;96.60;;;;;;6279387;22;19914;-72
2023/01/18 11:00:22;;;;;;;;;;;22.80;96.50;;;;;;6279401;22;19941;-72
2023/01/18 11:02:49;;;;;;;;;;;22.60;96.50;;;;;;6306137;22;19907;-72
2023/01/18 11:05:16;;;;;;;;;;;22.50;96.70;;;;;;6278431;22;19967;-72
2023/01/18 11:07:43;;;;;;;;;;;22.60;96.80;;;;;;6279837;22;19914;-72
2023/01/18 11:10:26;;;;;;;;;;;22.60;96.80;;;;;;6280140;22;19914;-72
2023/01/18 11:12:53;;;;;;;;;;;22.60;96.70;;;;;;6306419;22;20353;-72
2023/01/18 11:15:23;;;;;;;;;;;22.50;96.90;;;;;;6280174;22;20273;-72
2023/01/18 11:17:56;;;;;;;;;;;22.50;96.90;;;;;;6307705;22;19907;-72
2023/01/18 11:20:49;;;;;;;;;;;22.40;96.90;;;;;;6307275;22;19906;-72
2023/01/18 11:23:20;;;;;;;;;;;22.40;96.90;;;;;;6273264;22;20309;-70
2023/01/18 11:25:51;;;;;;;;;;;22.60;97.10;;;;;;6307614;22;19911;-70
2023/01/18 11:28:19;;;;;;;;;;;22.60;97.20;;;;;;6306143;22;19907;-69
2023/01/18 11:30:51;;;;;;;;;;;22.50;97.30;;;;;;6308360;22;19926;-69
2023/01/18 11:33:21;;;;;;;;;;;22.40;97.10;;;;;;6280336;22;19914;-70
2023/01/18 11:35:52;;;;;;;;;;;22.30;97.20;;;;;;6279820;22;19926;-70
2023/01/18 14:15:10;;;;;;;;;;;22.00;98.10;;;;;;6298487;22;19946;-73
2023/01/18 14:17:37;;;;;;;;;;;22.10;98.20;;;;;;6272848;22;19913;-73
2023/01/18 14:20:22;;;;;;;;;;;22.10;98.10;;;;;;6278413;22;19902;-71
2023/01/18 14:23:05;;;;;;;;;;;22.10;98.10;;;;;;6305353;22;20383;-71
2023/01/18 14:25:42;;;;;;;;;;;22.00;98.10;;;;;;6278460;22;19911;-71
2023/01/18 14:28:09;;;;;;;;;;;22.10;98.20;;;;;;6278851;22;19903;-71
2023/01/18 14:30:36;;;;;;;;;;;22.00;98.10;;;;;;6279299;22;19914;-71
2023/01/18 14:33:06;;;;;;;;;;;22.10;98.20;;;;;;6305549;22;19910;-71
2023/01/18 14:35:32;;;;;;;;;;;22.00;98.10;;;;;;6305621;22;19930;-71
2023/01/18 14:38:13;;;;;;;;;;;22.00;98.10;;;;;;6305667;22;19903;-71
2023/01/18 14:40:42;;;;;;;;;;;22.00;98.10;;;;;;6279322;22;19926;-71
2023/01/18 14:43:13;;;;;;;;;;;22.00;98.10;;;;;;6252661;22;19948;-71
2023/01/18 14:45:40;;;;;;;;;;;22.00;98.10;;;;;;6278464;22;20211;-71
2023/01/18 14:48:10;;;;;;;;;;;21.90;98.10;;;;;;6305449;22;20241;-71
2023/01/18 14:50:40;;;;;;;;;;;21.90;98.10;;;;;;6305785;22;19909;-71
2023/01/18 14:53:10;;;;;;;;;;;21.90;98.10;;;;;;6278709;22;19910;-72
2023/01/18 14:55:38;;;;;;;;;;;21.80;98.00;;;;;;6278538;22;19903;-71
2023/01/18 14:58:11;;;;;;;;;;;21.80;98.10;;;;;;6306083;22;19903;-71
2023/01/18 15:00:48;;;;;;;;;;;21.80;98.10;;;;;;6305458;22;20226;-71
2023/01/18 15:03:18;;;;;;;;;;;21.90;98.10;;;;;;6278644;22;19978;-71
2023/01/18 15:05:45;;;;;;;;;;;21.90;98.10;;;;;;6278226;22;19915;-71
2023/01/18 15:08:12;;;;;;;;;;;21.90;98.10;;;;;;6305804;22;20337;-71
2023/01/18 15:10:38;;;;;;;;;;;21.90;98.10;;;;;;6278917;22;19909;-72
2023/01/18 15:13:05;;;;;;;;;;;21.80;98.10;;;;;;6278739;22;19907;-71
2023/01/18 15:15:34;;;;;;;;;;;21.90;98.10;;;;;;6304686;22;20005;-71
2023/01/18 15:18:05;;;;;;;;;;;21.90;98.20;;;;;;6278006;22;19911;-72
2023/01/18 15:20:32;;;;;;;;;;;21.90;98.10;;;;;;6278539;22;19910;-72
2023/01/18 15:22:59;;;;;;;;;;;21.90;98.10;;;;;;6304975;22;19926;-72
2023/01/18 15:25:26;;;;;;;;;;;21.80;98.10;;;;;;6304803;22;19922;-72
2023/01/18 15:27:53;;;;;;;;;;;21.90;98.10;;;;;;6304705;22;19910;-72
2023/01/18 15:30:21;;;;;;;;;;;21.90;98.20;;;;;;6305530;22;19948;-72
2023/01/18 15:32:49;;;;;;;;;;;21.90;98.10;;;;;;6305389;22;19942;-72
2023/01/18 15:35:16;;;;;;;;;;;21.90;98.20;;;;;;6278313;22;19907;-71
2023/01/18 15:37:42;;;;;;;;;;;21.90;98.10;;;;;;6278575;22;20322;-72
2023/01/18 15:40:12;;;;;;;;;;;21.90;98.10;;;;;;6307553;22;19914;-72
2023/01/18 15:42:41;;;;;;;;;;;21.90;98.10;;;;;;6307015;22;19925;-72
2023/01/18 15:45:31;;;;;;;;;;;21.80;98.10;;;;;;6307145;22;19911;-72
2023/01/18 15:48:16;;;;;;;;;;;21.80;98.10;;;;;;6287544;22;19903;-72
2023/01/18 15:50:44;;;;;;;;;;;21.90;98.10;;;;;;6280031;22;19918;-72
2023/01/18 15:53:17;;;;;;;;;;;21.90;98.10;;;;;;6280409;22;19903;-72
2023/01/18 15:55:52;;;;;;;;;;;21.90;98.10;;;;;;6280301;22;19967;-71
2023/01/18 15:58:19;;;;;;;;;;;21.90;98.10;;;;;;6279891;22;19911;-72
2023/01/18 16:01:12;;;;;;;;;;;21.90;98.20;;;;;;6307174;22;19903;-72
2023/01/18 16:03:38;;;;;;;;;;;21.90;98.10;;;;;;6300303;22;19934;-73
2023/01/18 16:06:18;;;;;;;;;;;21.90;98.10;;;;;;6306583;22;20341;-72
2023/01/18 16:09:00;;;;;;;;;;;21.90;98.10;;;;;;6306658;22;19935;-72
2023/01/18 16:11:31;;;;;;;;;;;21.80;98.10;;;;;;6306466;22;19903;-71
2023/01/18 16:13:58;;;;;;;;;;;21.90;98.10;;;;;;6306769;22;19903;-72
2023/01/18 16:16:25;;;;;;;;;;;21.90;98.10;;;;;;6278277;22;19919;-71
2023/01/18 16:18:59;;;;;;;;;;;21.80;98.10;;;;;;6306453;22;19914;-72
2023/01/18 16:21:39;;;;;;;;;;;21.80;98.10;;;;;;6279188;22;19907;-72
2023/01/18 16:24:10;;;;;;;;;;;21.90;98.10;;;;;;6280093;22;19913;-71
2023/01/18 16:26:39;;;;;;;;;;;21.90;98.10;;;;;;6254312;22;19919;-72
2023/01/18 16:29:08;;;;;;;;;;;21.90;98.00;;;;;;6280101;22;19939;-72
2023/01/18 16:31:37;;;;;;;;;;;21.80;98.10;;;;;;6279570;22;19911;-72
2023/01/18 16:34:09;;;;;;;;;;;21.90;98.10;;;;;;6307553;22;19949;-72
2023/01/18 16:36:35;;;;;;;;;;;21.90;98.10;;;;;;6280164;22;19907;-71
2023/01/18 16:39:02;;;;;;;;;;;21.90;98.10;;;;;;6307236;22;19986;-72
2023/01/18 16:41:29;;;;;;;;;;;21.90;98.00;;;;;;6280137;22;19910;-71
2023/01/18 16:43:55;;;;;;;;;;;21.90;98.00;;;;;;6306942;22;19907;-72
2023/01/18 16:46:22;;;;;;;;;;;22.00;98.10;;;;;;6306779;22;19964;-72
2023/01/18 16:48:48;;;;;;;;;;;21.90;98.00;;;;;;6307029;22;19902;-71
2023/01/18 16:51:17;;;;;;;;;;;21.90;98.00;;;;;;6306937;22;19907;-72
2023/01/18 16:53:43;;;;;;;;;;;22.00;98.10;;;;;;6307876;22;20320;-72
2023/01/18 16:56:12;;;;;;;;;;;22.00;98.00;;;;;;6306747;22;19974;-71
2023/01/18 16:58:39;;;;;;;;;;;22.00;98.00;;;;;;6305517;22;20297;-71
2023/01/18 17:01:12;;;;;;;;;;;22.00;98.00;;;;;;6298936;22;19903;-71
2023/01/18 17:03:39;;;;;;;;;;;22.00;98.00;;;;;;6301951;22;19906;-71
2023/01/18 17:06:06;;;;;;;;;;;22.00;98.00;;;;;;6305238;22;19911;-72
2023/01/18 17:08:33;;;;;;;;;;;21.90;98.00;;;;;;6306592;22;19907;-72
2023/01/18 17:10:59;;;;;;;;;;;22.00;98.00;;;;;;6306054;22;19907;-72
2023/01/18 17:13:26;;;;;;;;;;;22.00;98.00;;;;;;6305159;22;19985;-71
2023/01/18 17:15:53;;;;;;;;;;;22.00;98.00;;;;;;6305856;22;20436;-71
2023/01/18 17:18:24;;;;;;;;;;;22.00;98.00;;;;;;6305904;22;19926;-71
2023/01/18 17:20:51;;;;;;;;;;;22.00;98.00;;;;;;6306283;22;19923;-71
2023/01/18 17:23:18;;;;;;;;;;;22.10;98.00;;;;;;6306635;22;19961;-71
2023/01/18 17:30:35;;;;;;;;;;;22.10;98.00;;;;;;6303017;22;19923;-71
2023/01/18 17:33:02;;;;;;;;;;;22.10;98.00;;;;;;6279815;22;19915;-71
2023/01/18 17:35:30;;;;;;;;;;;22.10;98.00;;;;;;6306850;22;19902;-71
2023/01/18 17:37:57;;;;;;;;;;;22.10;98.00;;;;;;6279415;22;20324;-71
2023/01/18 17:40:25;;;;;;;;;;;22.10;98.00;;;;;;6306161;22;19933;-71
2023/01/18 17:42:52;;;;;;;;;;;22.20;98.00;;;;;;6306717;22;19903;-71
2023/01/18 17:45:19;;;;;;;;;;;22.20;98.00;;;;;;6279361;22;19929;-71
2023/01/18 17:47:45;;;;;;;;;;;22.20;98.00;;;;;;6306383;22;19964;-73
2023/01/18 17:50:13;;;;;;;;;;;22.10;98.00;;;;;;6304688;22;19937;-74
2023/01/18 17:52:39;;;;;;;;;;;22.10;98.00;;;;;;6305269;22;20019;-71
2023/01/18 17:55:07;;;;;;;;;;;22.10;97.90;;;;;;6305925;22;19938;-71
2023/01/18 17:57:33;;;;;;;;;;;21.40;96.80;;;;;;6304214;22;19903;-70
2023/01/18 18:00:00;;;;;;;;;;;21.20;97.10;;;;;;6305217;22;19977;-71
2023/01/18 18:02:27;;;;;;;;;;;20.80;96.20;;;;;;6303240;22;19911;-71
2023/01/18 18:04:53;;;;;;;;;;;20.70;96.80;;;;;;6303510;22;19941;-70
2023/01/18 18:07:20;;;;;;;;;;;20.60;96.40;;;;;;6303594;22;19903;-70
2023/01/18 18:09:47;;;;;;;;;;;20.40;96.20;;;;;;6302528;22;20038;-70
2023/01/18 18:12:13;;;;;;;;;;;20.30;96.20;;;;;;6303261;22;19987;-70
2023/01/18 18:14:40;;;;;;;;;;;20.30;96.10;;;;;;6303774;22;19910;-71
2023/01/18 18:17:07;;;;;;;;;;;20.20;95.60;;;;;;6304540;22;19948;-70
2023/01/18 18:19:33;;;;;;;;;;;20.20;95.90;;;;;;6279013;22;20412;-69
2023/01/18 18:22:00;;;;;;;;;;;20.20;95.60;;;;;;6305688;22;20348;-69
2023/01/18 18:24:27;;;;;;;;;;;20.20;95.60;;;;;;6279172;22;19903;-69
2023/01/18 18:26:54;;;;;;;;;;;20.20;95.90;;;;;;6306531;22;19945;-70
2023/01/18 18:29:20;;;;;;;;;;;20.10;95.50;;;;;;6306447;22;19938;-69
2023/01/18 18:31:47;;;;;;;;;;;20.20;95.50;;;;;;6305577;22;19950;-69
2023/01/18 18:34:14;;;;;;;;;;;20.20;95.40;;;;;;6306155;22;20218;-69
2023/01/18 18:36:40;;;;;;;;;;;20.10;95.20;;;;;;6306157;22;19910;-69
2023/01/18 18:39:08;;;;;;;;;;;20.00;94.70;;;;;;6306461;22;19926;-69
2023/01/18 18:41:35;;;;;;;;;;;20.00;94.60;;;;;;6306345;22;19980;-70
2023/01/18 18:44:01;;;;;;;;;;;20.10;94.80;;;;;;6306377;22;19937;-69
2023/01/18 18:46:28;;;;;;;;;;;20.10;94.30;;;;;;6305877;22;19911;-69
2023/01/18 18:48:55;;;;;;;;;;;20.10;94.30;;;;;;6306225;22;19926;-69
2023/01/18 18:51:22;;;;;;;;;;;20.10;94.30;;;;;;6306086;22;19938;-69
2023/01/18 18:53:49;;;;;;;;;;;20.10;93.90;;;;;;6306307;22;20366;-69
2023/01/18 18:56:15;;;;;;;;;;;20.00;93.60;;;;;;6305527;22;19968;-69
2023/01/18 18:58:42;;;;;;;;;;;20.00;94.00;;;;;;6278497;22;19985;-72
2023/01/18 19:01:19;;;;;;;;;;;20.10;94.00;;;;;;6278711;22;19910;-72
2023/01/18 19:03:46;;;;;;;;;;;20.00;93.40;;;;;;6306186;22;19909;-71
2023/01/18 19:06:13;;;;;;;;;;;20.00;93.40;;;;;;6306133;22;19910;-71
2023/01/18 19:08:40;;;;;;;;;;;20.00;92.90;;;;;;6279106;22;19906;-72
2023/01/18 19:11:07;;;;;;;;;;;20.00;92.90;;;;;;6306317;22;19924;-71
2023/01/18 19:13:33;;;;;;;;;;;20.00;92.40;;;;;;6280150;22;20242;-71
2023/01/18 19:16:00;;;;;;;;;;;20.00;92.50;;;;;;6308404;22;19903;-71
2023/01/18 19:18:27;;;;;;;;;;;20.10;92.80;;;;;;6308166;22;19903;-72
2023/01/18 19:20:54;;;;;;;;;;;20.10;92.60;;;;;;6307977;22;19903;-71
2023/01/18 19:23:21;;;;;;;;;;;20.10;92.70;;;;;;6307691;22;19914;-72
2023/01/18 19:25:48;;;;;;;;;;;20.10;92.20;;;;;;6307812;22;20336;-72
2023/01/18 19:28:15;;;;;;;;;;;20.00;92.00;;;;;;6280654;22;20033;-72
2023/01/18 19:30:42;;;;;;;;;;;20.10;92.60;;;;;;6307888;22;19953;-72
2023/01/18 19:33:09;;;;;;;;;;;20.00;92.00;;;;;;6307872;22;19918;-70
2023/01/18 19:35:37;;;;;;;;;;;20.00;92.40;;;;;;6308151;22;19948;-69
2023/01/18 19:38:04;;;;;;;;;;;20.00;92.30;;;;;;6280798;22;19964;-71
2023/01/18 19:40:31;;;;;;;;;;;20.00;92.40;;;;;;6307862;22;19974;-70